Palm Beach International Airport

Date: 2024-06-11 13:53:00Z

Type: METAR

Weather: Thunderstorms

Winds: 170° at 13 kts

Visibility: 10+

Ceiling (AGL FT): Clouds SCATTERED at 2000, BROKEN at 3600, BROKEN at 9000, BROKEN at 7300

RAW METAR: KPBI 111353Z 17013KT 10SM TS SCT020 BKN036CB BKN090 27/24 A2993 RMK AO2 TSB51 SLP135 OCNL LTGICCG SE-S TS SE-S MOV NE CB DSNT ALQDS T02670244

project-image